Time;durP1;ratioP1;P1;durP2;ratioP2;P2;SDS_P1;SDS_P2;PMS_P1;PMS_P2;Temp;Humidity;BMP_temperature;BMP_pressure;BME280_temperature;BME280_humidity;BME280_pressure;Samples;Min_cycle;Max_cycle;Signal;HPM_P1;HPM_P2
2022/12/22 03:26:54;;;;;;;1.23;1.03;;;11.40;99.90;;;;;;5096477;28;20379;-73
2022/12/22 03:29:20;;;;;;;2.53;1.43;;;11.40;99.90;;;;;;5096883;28;20776;-73
2022/12/22 03:31:45;;;;;;;1.70;1.17;;;11.30;99.90;;;;;;5096790;28;20185;-73
2022/12/22 03:34:11;;;;;;;1.97;1.20;;;11.20;99.90;;;;;;5096207;28;20232;-73
2022/12/22 03:36:36;;;;;;;2.33;1.30;;;11.20;99.90;;;;;;5095691;28;20215;-72
2022/12/22 03:39:03;;;;;;;2.37;1.27;;;11.20;99.90;;;;;;5096030;28;20565;-72
2022/12/22 03:46:56;;;;;;;1.33;1.00;;;11.00;99.90;;;;;;5056397;28;20379;-73
2022/12/22 03:49:22;;;;;;;2.77;1.30;;;11.10;99.90;;;;;;5056200;28;20397;-73
2022/12/22 03:51:49;;;;;;;2.37;1.10;;;11.10;99.90;;;;;;5055962;28;20170;-73
2022/12/22 03:54:23;;;;;;;1.17;0.80;;;11.20;99.90;;;;;;5056330;28;20281;-72
2022/12/22 03:56:50;;;;;;;1.40;1.10;;;11.30;99.90;;;;;;5056667;28;20860;-72
2022/12/22 03:59:16;;;;;;;1.53;1.17;;;11.30;99.90;;;;;;5055902;28;20842;-71
2022/12/22 04:01:49;;;;;;;3.00;1.60;;;11.30;99.90;;;;;;5038247;28;20463;-73
2022/12/22 04:04:16;;;;;;;1.10;0.90;;;11.30;99.90;;;;;;5055458;28;20438;-73
2022/12/22 04:06:42;;;;;;;1.30;1.07;;;11.40;99.90;;;;;;5055749;28;20401;-73
2022/12/22 04:09:08;;;;;;;1.50;1.07;;;11.50;99.90;;;;;;5037870;28;20500;-73
2022/12/22 04:14:19;;;;;;;0.90;0.80;;;11.50;99.90;;;;;;5055465;28;20263;-73
2022/12/22 04:16:50;;;;;;;0.90;0.80;;;11.40;99.90;;;;;;5055731;28;20746;-73
2022/12/22 04:19:15;;;;;;;1.03;0.70;;;11.50;99.90;;;;;;5037598;28;20448;-72
2022/12/22 04:21:42;;;;;;;1.00;0.77;;;11.60;99.90;;;;;;5036511;28;20447;-72
2022/12/22 04:24:09;;;;;;;1.00;0.90;;;11.60;99.90;;;;;;5055475;28;20201;-73
2022/12/22 04:26:35;;;;;;;0.90;0.80;;;11.60;99.90;;;;;;5055554;28;20492;-72
2022/12/22 04:29:00;;;;;;;1.10;0.90;;;11.60;99.90;;;;;;5037525;28;20503;-73
2022/12/22 04:31:26;;;;;;;1.80;0.73;;;11.70;99.90;;;;;;5055374;28;20170;-73
2022/12/22 04:33:52;;;;;;;2.03;1.20;;;11.70;99.90;;;;;;5055157;28;20594;-73
2022/12/22 04:36:17;;;;;;;1.67;0.83;;;11.80;99.90;;;;;;5054705;28;20205;-72
2022/12/22 04:38:43;;;;;;;1.20;0.93;;;11.80;99.90;;;;;;5055321;28;20246;-73
2022/12/22 04:41:09;;;;;;;1.10;0.87;;;11.70;99.90;;;;;;5051505;28;20412;-73
2022/12/22 04:43:35;;;;;;;1.40;1.27;;;11.70;99.90;;;;;;5035138;28;20202;-73
2022/12/22 04:46:00;;;;;;;1.53;0.70;;;11.70;99.90;;;;;;5045758;28;20159;-74
2022/12/22 04:48:27;;;;;;;5.27;1.20;;;11.60;99.90;;;;;;5055072;28;20178;-73
2022/12/22 04:50:55;;;;;;;1.90;0.90;;;11.60;99.90;;;;;;5054538;28;20190;-73
2022/12/22 04:53:21;;;;;;;3.03;1.10;;;11.60;99.90;;;;;;5054956;28;20401;-72
2022/12/22 04:55:49;;;;;;;2.30;0.90;;;11.60;99.90;;;;;;5055294;28;20761;-72
2022/12/22 04:58:14;;;;;;;0.93;0.80;;;11.60;99.90;;;;;;5055010;28;20448;-72
2022/12/22 05:00:40;;;;;;;2.33;1.20;;;11.60;99.90;;;;;;5054946;28;20478;-73
2022/12/22 05:03:06;;;;;;;1.00;0.80;;;11.70;99.90;;;;;;5054983;28;20585;-73
2022/12/22 05:05:32;;;;;;;1.20;0.80;;;11.50;99.90;;;;;;5054395;28;20648;-73
2022/12/22 05:07:57;;;;;;;1.83;0.80;;;11.60;99.90;;;;;;5055231;28;20517;-73
2022/12/22 05:10:23;;;;;;;2.20;1.07;;;11.60;99.90;;;;;;5036878;28;20611;-73
2022/12/22 05:12:54;;;;;;;1.50;1.07;;;11.60;99.90;;;;;;5054733;28;20172;-73
2022/12/22 05:15:26;;;;;;;2.87;1.60;;;11.70;99.90;;;;;;5054692;28;20570;-73
2022/12/22 05:17:52;;;;;;;4.50;1.20;;;11.70;99.90;;;;;;5054861;28;20527;-72
2022/12/22 05:20:18;;;;;;;4.87;1.50;;;11.80;99.90;;;;;;5053246;28;20506;-74
2022/12/22 05:22:44;;;;;;;2.47;1.00;;;11.80;99.90;;;;;;5054589;28;20649;-73
2022/12/22 05:25:09;;;;;;;1.77;1.10;;;12.00;99.90;;;;;;5054492;28;20428;-73
2022/12/22 05:27:35;;;;;;;1.20;1.03;;;11.90;99.90;;;;;;5054643;28;20189;-73
2022/12/22 05:30:01;;;;;;;2.57;1.27;;;12.00;99.90;;;;;;5054525;28;20166;-73
2022/12/22 05:32:26;;;;;;;5.00;1.63;;;11.90;99.90;;;;;;5037943;28;20181;-73
2022/12/22 05:34:52;;;;;;;2.47;1.30;;;11.90;99.90;;;;;;5053824;28;20225;-73
2022/12/22 05:37:17;;;;;;;3.03;1.33;;;11.70;99.90;;;;;;5053863;28;20544;-73
2022/12/22 05:39:43;;;;;;;3.47;1.53;;;11.70;99.90;;;;;;5054143;28;20162;-73
2022/12/22 05:42:08;;;;;;;3.17;1.27;;;11.70;99.90;;;;;;5036231;28;20178;-73
2022/12/22 05:44:34;;;;;;;3.40;1.37;;;11.70;99.90;;;;;;5054104;28;20224;-74
2022/12/22 05:46:59;;;;;;;4.60;1.30;;;11.80;99.90;;;;;;5054241;28;20252;-74
2022/12/22 05:49:25;;;;;;;2.23;1.23;;;11.70;99.90;;;;;;5036403;28;20178;-74
2022/12/22 05:51:53;;;;;;;2.93;1.50;;;11.80;99.90;;;;;;5053898;28;20177;-73
2022/12/22 05:54:18;;;;;;;4.27;1.40;;;11.80;99.90;;;;;;5054531;28;20669;-73
2022/12/22 05:56:44;;;;;;;4.20;1.53;;;11.80;99.90;;;;;;5054157;28;20398;-74
2022/12/22 05:59:11;;;;;;;3.40;1.00;;;11.80;99.90;;;;;;5053883;28;20956;-74
2022/12/22 06:01:36;;;;;;;5.90;1.30;;;11.80;99.90;;;;;;5053935;28;20165;-74
2022/12/22 06:04:02;;;;;;;9.17;1.77;;;11.90;99.90;;;;;;5053640;28;20427;-75
2022/12/22 06:06:29;;;;;;;3.47;1.90;;;11.90;99.90;;;;;;5053134;28;20248;-73
2022/12/22 06:08:54;;;;;;;3.10;1.37;;;11.70;99.90;;;;;;5053687;28;20401;-74
2022/12/22 06:11:20;;;;;;;2.77;1.60;;;11.70;99.90;;;;;;5053985;28;20414;-74
2022/12/22 06:13:45;;;;;;;2.50;1.57;;;11.70;99.90;;;;;;5053407;28;20183;-73
2022/12/22 06:16:11;;;;;;;3.80;1.93;;;11.60;99.90;;;;;;5053311;28;20177;-73
2022/12/22 06:18:37;;;;;;;3.03;1.40;;;11.60;99.90;;;;;;5053530;28;20545;-72
2022/12/22 06:21:02;;;;;;;3.67;1.50;;;11.40;99.90;;;;;;5052184;28;20175;-74
2022/12/22 06:23:28;;;;;;;3.07;1.90;;;11.40;99.90;;;;;;5053562;28;20183;-73
2022/12/22 06:26:01;;;;;;;5.10;2.30;;;11.30;99.90;;;;;;5053390;28;20590;-73
2022/12/22 06:28:27;;;;;;;5.13;2.13;;;11.20;99.90;;;;;;5052990;28;20651;-73
2022/12/22 06:30:54;;;;;;;3.03;1.90;;;11.20;99.90;;;;;;5035616;28;20569;-73
2022/12/22 06:33:19;;;;;;;7.03;2.20;;;11.10;99.90;;;;;;5035579;28;20492;-72
2022/12/22 06:35:45;;;;;;;5.37;2.27;;;11.20;99.90;;;;;;5052979;28;20491;-74
2022/12/22 06:38:11;;;;;;;6.90;1.60;;;11.10;99.90;;;;;;5053734;28;20186;-74
2022/12/22 06:40:37;;;;;;;5.87;2.50;;;11.10;99.90;;;;;;5041697;28;20170;-73
2022/12/22 06:43:08;;;;;;;4.40;1.93;;;11.10;99.90;;;;;;5031953;28;20447;-73
2022/12/22 06:45:44;;;;;;;6.40;2.90;;;11.10;99.90;;;;;;5034953;28;20155;-73
2022/12/22 06:48:11;;;;;;;6.73;2.23;;;11.30;99.90;;;;;;5051813;28;20443;-72
2022/12/22 06:50:37;;;;;;;4.80;2.00;;;11.40;99.90;;;;;;5052842;28;20495;-72
2022/12/22 06:53:03;;;;;;;5.20;2.47;;;11.50;99.90;;;;;;5051963;28;20504;-73
2022/12/22 06:55:29;;;;;;;3.53;1.90;;;11.70;99.90;;;;;;5052867;28;20233;-74
2022/12/22 06:57:55;;;;;;;4.40;2.30;;;11.70;99.90;;;;;;5052817;28;20973;-73
2022/12/22 07:00:21;;;;;;;7.10;2.43;;;11.70;99.90;;;;;;5035157;28;20173;-74
2022/12/22 07:02:47;;;;;;;5.23;2.07;;;11.70;99.90;;;;;;5053057;28;20167;-73
2022/12/22 07:05:14;;;;;;;9.63;2.10;;;11.70;99.90;;;;;;5051430;28;20511;-73
2022/12/22 07:07:39;;;;;;;3.57;1.87;;;11.80;99.90;;;;;;5053157;28;20170;-72
2022/12/22 07:10:05;;;;;;;6.73;2.47;;;11.80;99.90;;;;;;5051315;28;20477;-73
2022/12/22 07:12:31;;;;;;;9.70;2.43;;;11.80;99.90;;;;;;5052809;28;20664;-73
2022/12/22 07:14:57;;;;;;;6.43;2.00;;;11.90;99.90;;;;;;5051324;28;20441;-72
2022/12/22 07:17:22;;;;;;;6.93;2.20;;;11.80;99.90;;;;;;5052595;28;20178;-73
2022/12/22 07:19:48;;;;;;;3.97;2.07;;;11.70;99.90;;;;;;5052090;28;20178;-72
2022/12/22 07:22:13;;;;;;;4.83;1.93;;;11.80;99.90;;;;;;5052517;28;20166;-72
2022/12/22 07:24:39;;;;;;;6.00;1.90;;;11.80;99.90;;;;;;5053110;28;20194;-73
2022/12/22 07:27:05;;;;;;;7.40;2.20;;;12.00;99.90;;;;;;5052641;28;20164;-73
2022/12/22 07:29:30;;;;;;;6.57;2.13;;;12.00;99.90;;;;;;5052743;28;20178;-73
2022/12/22 07:31:56;;;;;;;6.57;2.20;;;12.00;99.90;;;;;;5052304;28;20659;-72
2022/12/22 07:34:21;;;;;;;5.40;2.50;;;11.80;99.90;;;;;;5052504;28;20554;-73
2022/12/22 07:36:47;;;;;;;7.33;2.97;;;11.90;99.90;;;;;;5052185;28;20217;-73
2022/12/22 07:39:13;;;;;;;5.10;1.83;;;12.00;99.90;;;;;;5053121;28;20187;-73
2022/12/22 07:44:23;;;;;;;5.30;2.10;;;12.00;99.90;;;;;;5056055;28;20494;-74
2022/12/22 07:46:49;;;;;;;6.40;2.63;;;12.10;99.90;;;;;;5056856;28;20408;-72
2022/12/22 07:51:59;;;;;;;3.33;1.70;;;12.10;99.90;;;;;;5056169;28;20215;-73
2022/12/22 07:54:25;;;;;;;4.87;2.40;;;12.00;99.90;;;;;;5056157;28;20424;-72
2022/12/22 07:56:52;;;;;;;6.67;2.20;;;11.90;99.90;;;;;;5056049;28;20463;-74
2022/12/22 07:59:18;;;;;;;4.17;1.67;;;11.80;99.90;;;;;;5038313;28;20501;-73
2022/12/22 08:01:44;;;;;;;3.40;2.10;;;11.70;99.90;;;;;;5056057;28;20408;-73
2022/12/22 08:04:10;;;;;;;8.30;2.50;;;11.80;99.90;;;;;;5056015;28;20804;-73
2022/12/22 08:06:36;;;;;;;5.33;1.70;;;11.70;99.90;;;;;;5055393;28;20955;-74
2022/12/22 08:09:03;;;;;;;8.23;2.20;;;11.60;99.90;;;;;;5055520;28;20409;-73
2022/12/22 08:11:28;;;;;;;7.30;2.27;;;11.50;99.90;;;;;;5056414;28;20439;-73
2022/12/22 08:14:03;;;;;;;4.33;1.60;;;11.40;99.90;;;;;;5056364;28;20421;-73
2022/12/22 08:16:28;;;;;;;6.97;1.90;;;11.30;99.90;;;;;;5037944;28;20170;-73
2022/12/22 08:18:54;;;;;;;5.57;2.30;;;11.30;99.90;;;;;;5056654;28;20453;-74
2022/12/22 08:21:19;;;;;;;7.00;2.60;;;11.40;99.90;;;;;;5055410;28;20648;-72
2022/12/22 08:23:45;;;;;;;6.40;1.70;;;11.40;99.90;;;;;;5054463;28;20190;-73
2022/12/22 08:26:26;;;;;;;3.40;1.73;;;11.40;99.90;;;;;;5055659;28;20169;-73
2022/12/22 08:29:01;;;;;;;5.97;2.23;;;11.40;99.90;;;;;;5055656;28;20157;-73
2022/12/22 08:31:29;;;;;;;10.90;2.10;;;11.40;99.90;;;;;;5052968;28;20403;-72
2022/12/22 08:33:57;;;;;;;7.97;2.07;;;11.50;99.90;;;;;;5054512;28;20444;-72
2022/12/22 08:36:23;;;;;;;4.83;2.70;;;11.60;99.90;;;;;;5055943;28;20508;-72
2022/12/22 08:38:49;;;;;;;8.63;2.23;;;11.60;99.90;;;;;;5056032;28;20481;-72
2022/12/22 08:41:48;;;;;;;4.17;2.00;;;11.50;99.90;;;;;;5037879;28;20405;-72
2022/12/22 08:44:01;;;;;;;5.67;1.97;;;11.50;99.90;;;;;;5054823;28;20442;-73
2022/12/22 08:46:27;;;;;;;8.07;2.03;;;11.60;99.90;;;;;;5055812;28;20416;-73
2022/12/22 08:48:53;;;;;;;8.87;2.70;;;11.80;99.90;;;;;;5037528;28;20668;-71
2022/12/22 08:51:18;;;;;;;5.80;2.13;;;11.90;99.90;;;;;;5054865;28;20245;-71
2022/12/22 08:53:44;;;;;;;5.27;2.10;;;12.00;99.90;;;;;;5054823;28;20437;-71
2022/12/22 08:56:09;;;;;;;10.00;2.77;;;12.30;99.90;;;;;;5055001;28;20176;-71
2022/12/22 08:58:35;;;;;;;10.97;2.53;;;12.10;99.90;;;;;;5055013;28;20202;-71
2022/12/22 09:01:00;;;;;;;5.50;2.17;;;12.10;99.90;;;;;;5037591;28;20164;-72
2022/12/22 09:03:26;;;;;;;5.40;2.03;;;12.10;99.90;;;;;;5055120;28;20166;-71
2022/12/22 09:05:58;;;;;;;5.27;1.93;;;12.20;99.90;;;;;;5054488;28;20193;-71
2022/12/22 09:08:24;;;;;;;5.50;2.27;;;12.20;99.90;;;;;;5054968;28;20180;-70
2022/12/22 09:10:49;;;;;;;5.33;1.60;;;12.30;99.90;;;;;;5054948;28;20769;-71
2022/12/22 09:13:15;;;;;;;4.67;2.00;;;12.50;99.90;;;;;;5054529;28;20522;-71
2022/12/22 09:15:40;;;;;;;6.10;2.10;;;12.60;99.90;;;;;;5055080;28;20167;-70
2022/12/22 09:18:06;;;;;;;6.60;1.70;;;12.60;99.90;;;;;;5054701;28;20183;-70
2022/12/22 09:20:31;;;;;;;5.10;1.88;;;12.70;99.90;;;;;;5054615;28;20404;-70
2022/12/22 09:22:59;;;;;;;6.17;1.90;;;12.50;99.90;;;;;;5053524;28;20511;-72
2022/12/22 09:25:24;;;;;;;7.57;1.90;;;12.40;99.90;;;;;;5036416;28;20183;-72
2022/12/22 09:27:50;;;;;;;6.53;2.50;;;12.30;99.90;;;;;;5054325;28;20452;-70
2022/12/22 09:30:15;;;;;;;5.00;2.00;;;12.20;99.90;;;;;;5054400;28;20172;-71
2022/12/22 09:32:41;;;;;;;9.93;4.27;;;12.00;99.90;;;;;;5036206;28;20615;-72
2022/12/22 09:35:07;;;;;;;8.30;3.67;;;12.10;99.90;;;;;;5054436;28;20234;-71
2022/12/22 09:37:32;;;;;;;8.63;2.10;;;12.20;99.90;;;;;;5053516;28;20178;-70
2022/12/22 09:39:58;;;;;;;10.00;2.47;;;12.20;99.90;;;;;;5054434;28;20172;-72
2022/12/22 09:42:23;;;;;;;6.07;2.00;;;12.10;99.90;;;;;;5053974;28;20163;-70
2022/12/22 09:44:50;;;;;;;4.70;2.27;;;12.10;99.90;;;;;;5092849;22;20692;-71
2022/12/22 09:47:32;;;;;;;7.93;2.93;;;12.10;99.90;;;;;;5080468;28;20169;-70
2022/12/22 09:49:58;;;;;;;5.50;2.03;;;12.00;99.90;;;;;;5079359;28;20463;-70
2022/12/22 09:52:34;;;;;;;10.20;3.20;;;11.80;99.90;;;;;;5078758;28;20399;-72
2022/12/22 09:55:01;;;;;;;3.90;2.20;;;11.80;99.90;;;;;;5076788;28;20887;-69
2022/12/22 09:57:31;;;;;;;5.90;2.87;;;11.90;99.90;;;;;;5077087;28;20422;-71
2022/12/22 10:00:05;;;;;;;5.10;2.23;;;11.80;99.90;;;;;;5077266;28;20935;-70
2022/12/22 10:02:42;;;;;;;7.33;2.00;;;11.80;99.90;;;;;;5077612;28;20969;-71
2022/12/22 10:05:29;;;;;;;3.47;2.00;;;11.80;99.90;;;;;;5078199;28;20424;-69
2022/12/22 10:08:00;;;;;;;7.43;1.97;;;11.90;99.90;;;;;;5075352;28;20818;-72
2022/12/22 10:10:30;;;;;;;5.47;1.70;;;11.80;99.90;;;;;;5076478;28;20400;-70
2022/12/22 10:12:58;;;;;;;6.30;2.40;;;12.00;99.90;;;;;;5077232;28;20411;-70
2022/12/22 10:15:24;;;;;;;2.53;1.60;;;12.00;99.90;;;;;;5077518;28;20442;-70
2022/12/22 10:17:52;;;;;;;4.73;1.93;;;12.20;99.90;;;;;;5077556;28;20959;-70
2022/12/22 10:20:19;;;;;;;3.67;1.60;;;12.10;99.90;;;;;;5076540;28;20401;-72
2022/12/22 10:22:53;;;;;;;6.43;1.77;;;12.00;99.90;;;;;;5073565;28;20934;-71
2022/12/22 10:25:27;;;;;;;5.00;1.90;;;11.90;99.90;;;;;;5077857;28;20440;-70
2022/12/22 10:27:55;;;;;;;6.40;1.90;;;12.10;99.90;;;;;;5075995;28;20409;-71
2022/12/22 10:30:29;;;;;;;4.83;1.67;;;12.20;99.90;;;;;;5075578;28;20412;-71
2022/12/22 10:33:14;;;;;;;5.13;2.43;;;12.10;99.90;;;;;;5077627;28;20400;-71
2022/12/22 10:35:40;;;;;;;3.43;1.53;;;12.10;99.90;;;;;;5076333;28;20426;-71
2022/12/22 10:38:34;;;;;;;3.00;1.67;;;12.20;99.90;;;;;;5069523;28;20448;-71
2022/12/22 10:41:08;;;;;;;3.90;1.50;;;12.50;99.90;;;;;;5054880;28;20158;-72
2022/12/22 10:43:37;;;;;;;9.73;1.83;;;12.60;99.90;;;;;;5054376;28;20392;-72
2022/12/22 10:46:04;;;;;;;14.20;3.10;;;12.40;99.90;;;;;;5054270;28;20436;-72
2022/12/22 10:48:33;;;;;;;7.83;2.60;;;12.30;99.90;;;;;;5054025;28;20399;-73
2022/12/22 10:51:01;;;;;;;4.60;1.60;;;12.50;99.90;;;;;;5055076;28;20403;-72
2022/12/22 10:53:40;;;;;;;6.87;2.80;;;12.60;99.90;;;;;;5065449;28;20502;-71
2022/12/22 10:56:07;;;;;;;8.03;2.30;;;12.70;99.90;;;;;;5075795;28;20425;-73
2022/12/22 10:58:51;;;;;;;4.60;1.67;;;12.30;99.90;;;;;;5074010;28;20490;-73
2022/12/22 11:01:26;;;;;;;4.40;1.87;;;12.50;99.90;;;;;;5074294;28;20403;-71
2022/12/22 11:03:52;;;;;;;5.80;1.97;;;12.60;99.90;;;;;;5076551;28;20426;-73
2022/12/22 11:06:18;;;;;;;5.07;1.40;;;12.40;99.90;;;;;;5075136;28;20486;-74
2022/12/22 11:08:44;;;;;;;2.67;1.40;;;12.40;99.90;;;;;;5075187;28;20178;-71
2022/12/22 11:11:13;;;;;;;5.27;1.97;;;12.50;99.90;;;;;;5075986;28;20404;-71
2022/12/22 11:14:15;;;;;;;5.50;2.33;;;12.60;99.90;;;;;;5074677;28;20193;-73
2022/12/22 11:16:48;;;;;;;4.90;1.90;;;12.50;99.90;;;;;;5078225;28;20447;-72
2022/12/22 11:19:32;;;;;;;4.03;1.87;;;12.70;99.90;;;;;;5077833;28;20977;-72
2022/12/22 11:22:39;;;;;;;4.97;1.50;;;13.10;99.90;;;;;;5077714;28;20755;-71
2022/12/22 11:25:22;;;;;;;2.50;1.20;;;14.00;99.90;;;;;;5056771;28;20857;-71
2022/12/22 11:28:06;;;;;;;3.50;1.27;;;14.10;99.90;;;;;;5057087;28;20441;-71
2022/12/22 11:30:43;;;;;;;2.20;1.10;;;13.60;99.90;;;;;;5055535;28;20401;-71
2022/12/22 11:33:19;;;;;;;3.03;1.37;;;13.80;99.90;;;;;;5056748;28;20804;-71
2022/12/22 11:35:50;;;;;;;3.40;1.50;;;14.00;99.90;;;;;;5057048;28;20933;-71
2022/12/22 11:38:54;;;;;;;2.73;1.10;;;13.90;99.90;;;;;;5056485;28;20467;-71
2022/12/22 11:41:41;;;;;;;3.90;1.67;;;13.90;99.90;;;;;;5055381;28;20798;-71
2022/12/22 11:44:26;;;;;;;3.93;1.23;;;13.90;99.90;;;;;;5056443;28;20484;-71
2022/12/22 11:46:52;;;;;;;4.00;1.43;;;14.00;99.90;;;;;;5056729;28;20397;-72
2022/12/22 11:49:29;;;;;;;4.10;1.33;;;13.90;99.90;;;;;;5055550;28;20429;-70
2022/12/22 11:52:23;;;;;;;4.17;1.30;;;14.60;99.90;;;;;;5056804;28;20388;-70
2022/12/22 11:55:21;;;;;;;4.83;1.37;;;15.30;99.90;;;;;;5075135;28;20430;-71
2022/12/22 11:58:18;;;;;;;2.50;0.93;;;15.10;99.90;;;;;;5075291;28;20426;-71
2022/12/22 12:00:57;;;;;;;4.80;1.40;;;14.30;99.90;;;;;;5076420;28;20386;-71
2022/12/22 12:03:43;;;;;;;2.93;1.30;;;14.40;99.90;;;;;;5076709;28;20934;-70
2022/12/22 12:06:18;;;;;;;3.57;1.07;;;14.90;99.90;;;;;;5077211;28;20423;-71
2022/12/22 12:08:56;;;;;;;8.37;1.53;;;;;;;;;;5076512;28;20391;-71
2022/12/22 12:11:28;;;;;;;4.70;1.60;;;;;;;;;;5076558;28;20780;-71
2022/12/22 12:14:12;;;;;;;3.63;1.40;;;;;;;;;;5076081;28;20421;-72
2022/12/22 12:16:42;;;;;;;4.80;2.20;;;;;;;;;;5074558;28;20483;-70
2022/12/22 12:19:19;;;;;;;3.33;1.07;;;;;;;;;;5076163;28;20441;-70
2022/12/22 12:21:49;;;;;;;2.47;1.03;;;;;;;;;;5076408;28;20377;-71
2022/12/22 12:24:15;;;;;;;2.50;1.20;;;;;;;;;;5074151;28;20848;-71
2022/12/22 12:26:47;;;;;;;2.20;0.87;;;;;;;;;;5075413;28;20403;-70
2022/12/22 12:29:16;;;;;;;2.87;1.37;;;;;;;;;;5072491;28;20446;-71
2022/12/22 12:31:45;;;;;;;2.50;1.00;;;;;;;;;;5076046;28;20489;-69
2022/12/22 12:34:14;;;;;;;2.43;1.33;;;;;;;;;;5075774;28;20430;-71
2022/12/22 12:36:45;;;;;;;2.63;1.10;;;;;;;;;;5074903;28;20836;-71
2022/12/22 12:39:28;;;;;;;3.60;0.87;;;;;;;;;;5074945;28;20986;-71
2022/12/22 12:42:01;;;;;;;2.57;1.40;;;;;;;;;;5077563;28;20387;-71
2022/12/22 12:44:29;;;;;;;5.37;1.67;;;;;;;;;;5077179;28;20810;-71
2022/12/22 12:47:06;;;;;;;6.37;1.80;;;;;;;;;;5076926;28;20408;-70
2022/12/22 12:49:35;;;;;;;4.83;1.90;;;;;;;;;;5075868;28;20449;-71
2022/12/22 12:52:11;;;;;;;7.67;1.93;;;;;;;;;;5077033;28;20398;-73
2022/12/22 12:54:45;;;;;;;4.83;1.33;;;;;;;;;;5076027;28;20438;-71
2022/12/22 12:57:30;;;;;;;3.73;1.00;;;;;;;;;;5076282;28;20405;-72
2022/12/22 12:59:57;;;;;;;2.83;1.20;;;;;;;;;;5075128;28;20526;-71
2022/12/22 13:02:26;;;;;;;1.70;1.20;;;;;;;;;;5076340;28;20414;-71
2022/12/22 13:05:10;;;;;;;2.20;0.97;;;;;;;;;;5076118;28;20928;-71
2022/12/22 13:07:54;;;;;;;2.07;0.90;;;;;;;;;;5075849;28;20430;-71
2022/12/22 13:10:22;;;;;;;1.53;1.10;;;;;;;;;;5075343;28;20421;-72
2022/12/22 13:12:50;;;;;;;2.73;1.00;;;;;;;;;;5076074;28;20795;-71
2022/12/22 13:15:31;;;;;;;2.20;0.70;;;;;;;;;;5075984;28;20815;-73
2022/12/22 13:17:58;;;;;;;2.80;1.20;;;;;;;;;;5075447;28;20481;-71
2022/12/22 13:20:26;;;;;;;4.13;1.13;;;;;;;;;;5075044;28;20459;-72
2022/12/22 13:22:53;;;;;;;9.00;1.50;;;;;;;;;;5074437;28;20404;-73
2022/12/22 13:25:20;;;;;;;2.10;1.00;;;;;;;;;;5073104;28;20443;-73
2022/12/22 13:27:47;;;;;;;4.43;1.07;;;;;;;;;;5074813;28;20414;-69
2022/12/22 13:30:15;;;;;;;4.77;1.00;;;;;;;;;;5074632;28;20399;-71
2022/12/22 13:32:41;;;;;;;2.33;1.10;;;;;;;;;;5074600;28;20490;-71
2022/12/22 13:35:07;;;;;;;3.00;1.87;;;;;;;;;;5075737;28;20792;-71
2022/12/22 13:37:39;;;;;;;2.67;1.80;;;;;;;;;;5074171;28;20429;-70
2022/12/22 13:40:08;;;;;;;3.20;1.13;;;;;;;;;;5074322;28;20890;-73
2022/12/22 13:42:39;;;;;;;2.90;0.90;;;;;;;;;;5074840;28;20391;-75
2022/12/22 13:45:05;;;;;;;3.00;1.10;;;;;;;;;;5074170;28;20847;-71
2022/12/22 13:47:32;;;;;;;3.03;1.40;;;;;;;;;;5074438;28;20393;-72
2022/12/22 13:49:58;;;;;;;3.67;1.27;;;;;;;;;;5074583;28;20409;-71
2022/12/22 13:52:24;;;;;;;3.88;1.10;;;;;;;;;;5073855;28;20413;-72
2022/12/22 13:54:50;;;;;;;3.40;1.00;;;;;;;;;;5073866;28;20709;-72
2022/12/22 13:57:20;;;;;;;3.80;1.33;;;;;;;;;;5074661;28;20886;-71
2022/12/22 13:59:48;;;;;;;5.80;1.10;;;;;;;;;;5072740;28;20451;-73
2022/12/22 14:02:16;;;;;;;3.40;0.87;;;;;;;;;;5073918;28;20490;-72
2022/12/22 14:04:43;;;;;;;4.30;1.30;;;;;;;;;;5073731;28;20906;-72
2022/12/22 14:07:13;;;;;;;1.93;1.00;;;;;;;;;;5073657;28;20488;-73
2022/12/22 14:09:43;;;;;;;1.87;0.87;;;;;;;;;;5073417;28;20413;-72
2022/12/22 14:12:12;;;;;;;1.90;0.97;;;;;;;;;;5072458;28;20413;-72
2022/12/22 14:14:40;;;;;;;2.23;0.90;;;;;;;;;;5072416;28;20430;-74
2022/12/22 14:17:17;;;;;;;1.80;1.17;;;;;;;;;;5073718;28;20487;-72
2022/12/22 14:19:42;;;;;;;3.10;1.00;;;13.70;99.90;;;;;;5073947;28;20435;-73
2022/12/22 14:22:16;;;;;;;2.33;1.43;;;13.60;99.90;;;;;;5073590;28;20996;-72
2022/12/22 14:24:53;;;;;;;3.50;1.93;;;13.60;99.90;;;;;;5071703;28;20667;-72
2022/12/22 14:27:36;;;;;;;3.93;1.97;;;13.50;99.90;;;;;;5073693;28;20380;-71
2022/12/22 14:30:05;;;;;;;6.60;2.03;;;13.40;99.90;;;;;;5069101;28;20405;-71
2022/12/22 14:32:40;;;;;;;2.20;1.13;;;13.30;99.90;;;;;;5073433;28;20434;-71
2022/12/22 14:35:24;;;;;;;7.30;2.10;;;13.30;99.90;;;;;;5073318;28;20418;-71
2022/12/22 14:38:14;;;;;;;5.27;2.03;;;13.20;99.90;;;;;;5073654;28;20392;-73
2022/12/22 14:40:41;;;;;;;6.77;2.30;;;13.10;99.90;;;;;;5068482;28;20478;-72
2022/12/22 14:43:16;;;;;;;4.87;2.27;;;13.00;99.90;;;;;;5073145;28;20403;-72
2022/12/22 14:45:46;;;;;;;8.10;3.10;;;13.10;99.90;;;;;;5073040;28;20461;-72
2022/12/22 14:48:26;;;;;;;5.40;1.87;;;13.10;99.90;;;;;;5071656;28;20544;-72
2022/12/22 14:50:53;;;;;;;3.00;2.00;;;13.00;99.90;;;;;;5073261;28;20438;-72
2022/12/22 14:53:25;;;;;;;2.80;1.87;;;12.90;99.90;;;;;;5072613;28;20412;-72
2022/12/22 14:55:52;;;;;;;5.20;1.70;;;12.90;99.90;;;;;;5072775;28;20576;-72
2022/12/22 14:58:31;;;;;;;4.30;1.73;;;13.10;99.90;;;;;;5073298;28;20863;-73
2022/12/22 15:01:18;;;;;;;8.40;2.30;;;12.80;99.90;;;;;;5073172;28;20424;-72
2022/12/22 15:03:56;;;;;;;4.97;1.83;;;12.80;99.90;;;;;;5071457;28;20401;-72
2022/12/22 15:06:44;;;;;;;6.17;2.20;;;12.80;99.90;;;;;;5073221;28;20386;-72
2022/12/22 15:09:13;;;;;;;6.97;1.83;;;12.70;99.90;;;;;;5072986;28;20872;-72
2022/12/22 15:11:42;;;;;;;4.87;2.03;;;12.60;99.90;;;;;;5073426;28;20410;-72
2022/12/22 15:14:12;;;;;;;5.30;1.97;;;12.60;99.90;;;;;;5072752;28;20432;-72
2022/12/22 15:16:38;;;;;;;7.80;2.30;;;12.60;99.90;;;;;;5073332;28;20982;-73
2022/12/22 15:19:04;;;;;;;4.63;1.90;;;12.80;99.90;;;;;;5073208;28;20594;-71
2022/12/22 15:21:31;;;;;;;7.27;1.70;;;12.70;99.90;;;;;;5072999;28;20178;-71
2022/12/22 15:23:56;;;;;;;7.70;2.10;;;12.60;99.90;;;;;;5070423;28;20963;-73
2022/12/22 15:26:22;;;;;;;7.23;2.30;;;12.60;99.90;;;;;;5073135;28;20497;-72
2022/12/22 15:28:47;;;;;;;6.83;2.23;;;12.60;99.90;;;;;;5074455;28;20169;-72
2022/12/22 15:31:15;;;;;;;6.80;2.20;;;12.60;99.90;;;;;;5074477;28;20174;-72
2022/12/22 15:33:42;;;;;;;6.27;2.30;;;12.70;99.90;;;;;;5073743;28;20170;-73
2022/12/22 15:36:12;;;;;;;5.77;1.87;;;12.80;99.90;;;;;;5074197;28;20475;-71
2022/12/22 15:38:38;;;;;;;4.40;1.97;;;12.60;99.90;;;;;;5073442;28;20485;-72
2022/12/22 15:41:05;;;;;;;5.07;2.17;;;12.70;99.90;;;;;;5072586;28;20519;-71
2022/12/22 15:43:30;;;;;;;3.70;1.73;;;12.40;99.90;;;;;;5072976;28;20426;-71
2022/12/22 15:45:56;;;;;;;5.40;2.33;;;12.30;99.90;;;;;;5072593;28;20842;-71
2022/12/22 15:48:31;;;;;;;7.40;2.20;;;12.20;99.90;;;;;;5073437;28;20183;-73
2022/12/22 15:50:58;;;;;;;8.47;1.90;;;12.20;99.90;;;;;;5072950;28;20440;-72
2022/12/22 15:53:24;;;;;;;5.80;2.30;;;12.10;99.90;;;;;;5071521;28;20915;-70
2022/12/22 15:55:53;;;;;;;5.93;2.67;;;12.20;99.90;;;;;;5072319;28;20452;-71
2022/12/22 15:58:22;;;;;;;4.50;1.80;;;12.30;99.90;;;;;;5072765;28;20193;-72
2022/12/22 16:00:48;;;;;;;5.17;1.93;;;12.30;99.90;;;;;;5074316;28;20405;-72
2022/12/22 16:03:13;;;;;;;6.77;2.40;;;12.30;99.90;;;;;;5076311;28;20913;-71
2022/12/22 16:05:40;;;;;;;5.23;2.00;;;12.20;99.90;;;;;;5076107;28;20189;-73
2022/12/22 16:08:18;;;;;;;3.53;1.57;;;12.30;99.90;;;;;;5076145;28;20429;-71
2022/12/22 16:10:45;;;;;;;4.43;2.03;;;12.40;99.90;;;;;;5075884;28;20398;-70
2022/12/22 16:13:13;;;;;;;6.20;2.37;;;12.30;99.90;;;;;;5075824;28;20448;-71
2022/12/22 16:15:39;;;;;;;4.27;2.10;;;12.30;99.90;;;;;;5075980;28;20437;-73
2022/12/22 16:18:05;;;;;;;6.63;2.30;;;12.20;99.90;;;;;;5074756;28;21039;-72
2022/12/22 16:20:36;;;;;;;6.40;2.37;;;12.00;99.90;;;;;;5075724;28;20407;-72
2022/12/22 16:23:03;;;;;;;5.73;2.37;;;12.10;99.90;;;;;;5075817;28;20408;-73
2022/12/22 16:25:34;;;;;;;7.83;2.50;;;12.10;99.90;;;;;;5074210;28;20450;-72
2022/12/22 16:28:01;;;;;;;7.73;2.20;;;12.10;99.90;;;;;;5075999;28;20472;-71
2022/12/22 16:30:30;;;;;;;6.10;2.57;;;12.10;99.90;;;;;;5076078;28;20408;-71
2022/12/22 16:32:55;;;;;;;5.43;2.27;;;12.10;99.90;;;;;;5076077;28;20906;-71
2022/12/22 16:35:23;;;;;;;10.80;2.87;;;12.00;99.90;;;;;;5072246;28;20535;-71
2022/12/22 16:37:50;;;;;;;7.73;2.40;;;12.00;99.90;;;;;;5075517;28;20166;-71
2022/12/22 16:40:17;;;;;;;7.30;2.80;;;11.90;99.90;;;;;;5075179;28;20447;-71
2022/12/22 16:43:05;;;;;;;6.03;2.50;;;12.00;99.90;;;;;;5075148;28;20447;-70
2022/12/22 16:45:33;;;;;;;6.13;2.20;;;11.80;99.90;;;;;;5071139;28;20822;-71
2022/12/22 16:48:03;;;;;;;9.97;2.33;;;11.90;99.90;;;;;;5075700;28;20927;-71
2022/12/22 16:50:31;;;;;;;7.50;2.67;;;11.90;99.90;;;;;;5071569;28;20794;-71
2022/12/22 16:53:03;;;;;;;4.40;2.10;;;11.90;99.90;;;;;;5064000;28;20441;-72
2022/12/22 16:55:29;;;;;;;10.47;3.27;;;12.10;99.90;;;;;;5066861;28;20439;-72